sensor_id;sensor_type;location;lat;lon;timestamp;pressure;altitude;pressure_sealevel;temperature;humidity
56992;BME280;42885;49.754;18.636;2023-05-27T00:00:57;99033.81;;;14.38;100.00
56992;BME280;42885;49.754;18.636;2023-05-27T00:03:29;99028.47;;;14.39;100.00
56992;BME280;42885;49.754;18.636;2023-05-27T00:06:01;99032.16;;;14.22;100.00
56992;BME280;42885;49.754;18.636;2023-05-27T00:08:32;99032.73;;;14.20;100.00
56992;BME280;42885;49.754;18.636;2023-05-27T00:11:02;99031.98;;;14.25;100.00
56992;BME280;42885;49.754;18.636;2023-05-27T00:13:33;99026.52;;;14.21;100.00
56992;BME280;42885;49.754;18.636;2023-05-27T00:16:05;99030.61;;;14.40;100.00
56992;BME280;42885;49.754;18.636;2023-05-27T00:18:35;99031.75;;;14.43;100.00
56992;BME280;42885;49.754;18.636;2023-05-27T00:21:06;99036.45;;;14.38;100.00
56992;BME280;42885;49.754;18.636;2023-05-27T00:23:37;99030.43;;;14.43;100.00
56992;BME280;42885;49.754;18.636;2023-05-27T00:26:09;99036.28;;;14.41;100.00
56992;BME280;42885;49.754;18.636;2023-05-27T00:28:40;99037.19;;;14.40;100.00
56992;BME280;42885;49.754;18.636;2023-05-27T00:31:11;99035.38;;;14.13;100.00
56992;BME280;42885;49.754;18.636;2023-05-27T00:33:42;99043.20;;;14.07;100.00
56992;BME280;42885;49.754;18.636;2023-05-27T00:36:15;99037.77;;;13.96;100.00
56992;BME280;42885;49.754;18.636;2023-05-27T00:38:47;99039.53;;;14.10;100.00
56992;BME280;42885;49.754;18.636;2023-05-27T00:41:18;99039.16;;;14.09;100.00
56992;BME280;42885;49.754;18.636;2023-05-27T00:43:49;99040.28;;;13.97;100.00
56992;BME280;42885;49.754;18.636;2023-05-27T00:46:21;99031.19;;;13.74;100.00
56992;BME280;42885;49.754;18.636;2023-05-27T00:48:52;99029.04;;;13.59;100.00
56992;BME280;42885;49.754;18.636;2023-05-27T00:51:24;99033.16;;;13.63;100.00
56992;BME280;42885;49.754;18.636;2023-05-27T00:53:55;99031.84;;;13.63;100.00
56992;BME280;42885;49.754;18.636;2023-05-27T00:56:26;99027.53;;;13.62;100.00
56992;BME280;42885;49.754;18.636;2023-05-27T00:58:57;99031.58;;;13.53;100.00
56992;BME280;42885;49.754;18.636;2023-05-27T01:01:28;99029.33;;;13.61;100.00
56992;BME280;42885;49.754;18.636;2023-05-27T01:03:59;99033.81;;;13.67;100.00
56992;BME280;42885;49.754;18.636;2023-05-27T01:06:55;99025.33;;;13.40;100.00
56992;BME280;42885;49.754;18.636;2023-05-27T01:15:25;99031.84;;;13.63;100.00
56992;BME280;42885;49.754;18.636;2023-05-27T01:18:01;99024.58;;;13.38;100.00
56992;BME280;42885;49.754;18.636;2023-05-27T01:20:33;99025.39;;;13.31;100.00
56992;BME280;42885;49.754;18.636;2023-05-27T01:23:05;99027.75;;;13.35;100.00
56992;BME280;42885;49.754;18.636;2023-05-27T01:25:37;99026.02;;;13.72;100.00
56992;BME280;42885;49.754;18.636;2023-05-27T01:28:08;99027.24;;;13.14;100.00
56992;BME280;42885;49.754;18.636;2023-05-27T01:30:39;99031.51;;;12.63;100.00
56992;BME280;42885;49.754;18.636;2023-05-27T01:33:20;99032.90;;;12.61;100.00
56992;BME280;42885;49.754;18.636;2023-05-27T01:35:54;99035.30;;;12.57;100.00
56992;BME280;42885;49.754;18.636;2023-05-27T01:38:26;99025.96;;;12.44;100.00
56992;BME280;42885;49.754;18.636;2023-05-27T01:40:58;99034.17;;;12.70;100.00
56992;BME280;42885;49.754;18.636;2023-05-27T01:43:29;99026.13;;;13.11;100.00
56992;BME280;42885;49.754;18.636;2023-05-27T01:46:01;99034.23;;;12.29;100.00
56992;BME280;42885;49.754;18.636;2023-05-27T01:48:32;99030.38;;;12.28;100.00
56992;BME280;42885;49.754;18.636;2023-05-27T01:51:04;99024.67;;;12.28;100.00
56992;BME280;42885;49.754;18.636;2023-05-27T01:53:35;99030.04;;;12.34;100.00
56992;BME280;42885;49.754;18.636;2023-05-27T01:56:06;99025.20;;;12.42;100.00
56992;BME280;42885;49.754;18.636;2023-05-27T01:58:37;99023.64;;;12.15;100.00
56992;BME280;42885;49.754;18.636;2023-05-27T02:01:08;99029.62;;;12.01;100.00
56992;BME280;42885;49.754;18.636;2023-05-27T02:03:39;99028.37;;;12.17;100.00
56992;BME280;42885;49.754;18.636;2023-05-27T02:06:10;99024.17;;;12.21;100.00
56992;BME280;42885;49.754;18.636;2023-05-27T02:08:41;99027.07;;;12.24;100.00
56992;BME280;42885;49.754;18.636;2023-05-27T02:11:12;99023.59;;;12.39;100.00
56992;BME280;42885;49.754;18.636;2023-05-27T02:13:43;99026.70;;;12.39;100.00
56992;BME280;42885;49.754;18.636;2023-05-27T02:16:14;99018.98;;;12.52;100.00
56992;BME280;42885;49.754;18.636;2023-05-27T02:18:45;99025.98;;;12.28;100.00
56992;BME280;42885;49.754;18.636;2023-05-27T02:21:18;99019.30;;;11.97;100.00
56992;BME280;42885;49.754;18.636;2023-05-27T02:23:49;99021.80;;;11.92;100.00
56992;BME280;42885;49.754;18.636;2023-05-27T02:26:20;99018.39;;;11.90;100.00
56992;BME280;42885;49.754;18.636;2023-05-27T02:28:51;99026.51;;;11.85;100.00
56992;BME280;42885;49.754;18.636;2023-05-27T02:31:22;99030.98;;;11.92;100.00
56992;BME280;42885;49.754;18.636;2023-05-27T02:33:53;99035.49;;;11.97;100.00
56992;BME280;42885;49.754;18.636;2023-05-27T02:36:24;99037.05;;;11.76;100.00
56992;BME280;42885;49.754;18.636;2023-05-27T02:38:56;99040.11;;;11.76;100.00
56992;BME280;42885;49.754;18.636;2023-05-27T02:41:27;99035.98;;;11.63;100.00
56992;BME280;42885;49.754;18.636;2023-05-27T02:43:58;99035.38;;;11.82;100.00
56992;BME280;42885;49.754;18.636;2023-05-27T02:46:29;99039.98;;;11.70;100.00
56992;BME280;42885;49.754;18.636;2023-05-27T02:49:00;99037.33;;;11.54;100.00
56992;BME280;42885;49.754;18.636;2023-05-27T02:51:31;99030.86;;;11.77;100.00
56992;BME280;42885;49.754;18.636;2023-05-27T02:54:02;99032.73;;;11.75;100.00
56992;BME280;42885;49.754;18.636;2023-05-27T02:56:33;99035.73;;;11.76;100.00
56992;BME280;42885;49.754;18.636;2023-05-27T02:59:04;99037.98;;;11.57;100.00
56992;BME280;42885;49.754;18.636;2023-05-27T03:01:35;99033.41;;;11.79;100.00
56992;BME280;42885;49.754;18.636;2023-05-27T03:04:06;99034.56;;;11.73;100.00
56992;BME280;42885;49.754;18.636;2023-05-27T03:06:37;99036.22;;;11.92;100.00
56992;BME280;42885;49.754;18.636;2023-05-27T03:09:08;99038.73;;;12.02;100.00
56992;BME280;42885;49.754;18.636;2023-05-27T03:11:39;99043.73;;;11.82;100.00
56992;BME280;42885;49.754;18.636;2023-05-27T03:14:09;99045.14;;;12.05;100.00
56992;BME280;42885;49.754;18.636;2023-05-27T03:16:40;99047.50;;;11.51;100.00
56992;BME280;42885;49.754;18.636;2023-05-27T03:19:11;99049.28;;;11.24;100.00
56992;BME280;42885;49.754;18.636;2023-05-27T03:21:42;99063.41;;;11.04;100.00
56992;BME280;42885;49.754;18.636;2023-05-27T03:24:15;99054.08;;;11.07;100.00
56992;BME280;42885;49.754;18.636;2023-05-27T03:26:46;99063.41;;;11.22;100.00
56992;BME280;42885;49.754;18.636;2023-05-27T03:29:17;99068.45;;;11.69;100.00
56992;BME280;42885;49.754;18.636;2023-05-27T03:31:48;99070.49;;;11.28;100.00
56992;BME280;42885;49.754;18.636;2023-05-27T03:34:21;99075.73;;;11.28;100.00
56992;BME280;42885;49.754;18.636;2023-05-27T03:36:52;99075.73;;;11.28;100.00
56992;BME280;42885;49.754;18.636;2023-05-27T03:39:24;99074.62;;;11.68;100.00
56992;BME280;42885;49.754;18.636;2023-05-27T03:41:57;99079.69;;;11.80;100.00
56992;BME280;42885;49.754;18.636;2023-05-27T03:44:28;99078.63;;;12.00;100.00
56992;BME280;42885;49.754;18.636;2023-05-27T03:47:04;99079.52;;;11.83;100.00
56992;BME280;42885;49.754;18.636;2023-05-27T03:49:36;99080.70;;;12.02;100.00
56992;BME280;42885;49.754;18.636;2023-05-27T03:52:06;99075.74;;;12.14;100.00
56992;BME280;42885;49.754;18.636;2023-05-27T03:54:38;99073.62;;;11.62;100.00
56992;BME280;42885;49.754;18.636;2023-05-27T03:57:09;99075.03;;;11.51;100.00
56992;BME280;42885;49.754;18.636;2023-05-27T03:59:41;99083.20;;;11.45;100.00
56992;BME280;42885;49.754;18.636;2023-05-27T04:02:12;99077.24;;;11.68;100.00
56992;BME280;42885;49.754;18.636;2023-05-27T04:04:43;99079.14;;;11.73;100.00
56992;BME280;42885;49.754;18.636;2023-05-27T04:07:15;99079.27;;;11.45;100.00
56992;BME280;42885;49.754;18.636;2023-05-27T04:09:47;99081.45;;;11.79;100.00
56992;BME280;42885;49.754;18.636;2023-05-27T04:12:18;99079.83;;;11.77;100.00
56992;BME280;42885;49.754;18.636;2023-05-27T04:14:52;99083.76;;;11.86;100.00
56992;BME280;42885;49.754;18.636;2023-05-27T04:17:23;99088.11;;;11.69;100.00
56992;BME280;42885;49.754;18.636;2023-05-27T04:19:54;99093.94;;;11.74;100.00
56992;BME280;42885;49.754;18.636;2023-05-27T04:22:26;99101.18;;;11.87;100.00
56992;BME280;42885;49.754;18.636;2023-05-27T04:24:57;99105.16;;;12.11;100.00
56992;BME280;42885;49.754;18.636;2023-05-27T04:27:30;99109.41;;;12.05;100.00
56992;BME280;42885;49.754;18.636;2023-05-27T04:30:01;99110.73;;;12.05;100.00
56992;BME280;42885;49.754;18.636;2023-05-27T04:32:33;99109.91;;;12.21;100.00
56992;BME280;42885;49.754;18.636;2023-05-27T04:35:08;99116.45;;;12.30;100.00
56992;BME280;42885;49.754;18.636;2023-05-27T04:37:39;99124.91;;;12.35;100.00
56992;BME280;42885;49.754;18.636;2023-05-27T04:40:14;99119.69;;;12.51;100.00
56992;BME280;42885;49.754;18.636;2023-05-27T04:42:50;99114.08;;;12.41;100.00
56992;BME280;42885;49.754;18.636;2023-05-27T04:45:21;99111.28;;;12.28;100.00
56992;BME280;42885;49.754;18.636;2023-05-27T04:47:53;99112.28;;;12.25;100.00
56992;BME280;42885;49.754;18.636;2023-05-27T04:50:25;99106.45;;;12.36;100.00
56992;BME280;42885;49.754;18.636;2023-05-27T04:52:56;99106.00;;;12.53;100.00
56992;BME280;42885;49.754;18.636;2023-05-27T04:55:27;99110.06;;;12.59;100.00
56992;BME280;42885;49.754;18.636;2023-05-27T04:57:59;99105.57;;;12.77;100.00
56992;BME280;42885;49.754;18.636;2023-05-27T05:00:32;99103.55;;;12.89;100.00
56992;BME280;42885;49.754;18.636;2023-05-27T05:03:10;99109.52;;;13.00;100.00
56992;BME280;42885;49.754;18.636;2023-05-27T05:05:43;99105.50;;;12.78;100.00
56992;BME280;42885;49.754;18.636;2023-05-27T05:08:14;99114.47;;;12.98;100.00
56992;BME280;42885;49.754;18.636;2023-05-27T05:10:47;99101.63;;;13.31;100.00
56992;BME280;42885;49.754;18.636;2023-05-27T05:13:18;99108.02;;;13.27;100.00
56992;BME280;42885;49.754;18.636;2023-05-27T05:15:50;99109.75;;;13.42;100.00
56992;BME280;42885;49.754;18.636;2023-05-27T05:18:21;99112.61;;;13.54;100.00
56992;BME280;42885;49.754;18.636;2023-05-27T05:20:52;99107.50;;;13.43;100.00
56992;BME280;42885;49.754;18.636;2023-05-27T05:23:25;99109.43;;;13.63;100.00
56992;BME280;42885;49.754;18.636;2023-05-27T05:25:57;99112.84;;;13.94;100.00
56992;BME280;42885;49.754;18.636;2023-05-27T05:28:30;99106.73;;;14.08;100.00
56992;BME280;42885;49.754;18.636;2023-05-27T05:31:01;99107.30;;;14.21;100.00
56992;BME280;42885;49.754;18.636;2023-05-27T05:33:33;99111.70;;;14.06;100.00
56992;BME280;42885;49.754;18.636;2023-05-27T05:36:04;99111.05;;;14.16;100.00
56992;BME280;42885;49.754;18.636;2023-05-27T05:38:39;99117.25;;;14.44;100.00
56992;BME280;42885;49.754;18.636;2023-05-27T05:41:10;99115.00;;;14.80;100.00
56992;BME280;42885;49.754;18.636;2023-05-27T05:43:42;99119.38;;;14.59;100.00
56992;BME280;42885;49.754;18.636;2023-05-27T05:46:13;99119.36;;;14.67;100.00
56992;BME280;42885;49.754;18.636;2023-05-27T05:48:45;99112.78;;;14.59;100.00
56992;BME280;42885;49.754;18.636;2023-05-27T05:51:18;99111.75;;;14.62;99.50
56992;BME280;42885;49.754;18.636;2023-05-27T05:53:50;99114.63;;;14.65;97.43
56992;BME280;42885;49.754;18.636;2023-05-27T05:56:22;99110.10;;;14.81;99.33
56992;BME280;42885;49.754;18.636;2023-05-27T05:58:53;99109.58;;;14.76;98.96
56992;BME280;42885;49.754;18.636;2023-05-27T06:01:25;99119.56;;;14.98;96.67
56992;BME280;42885;49.754;18.636;2023-05-27T06:03:56;99120.70;;;15.14;96.72
56992;BME280;42885;49.754;18.636;2023-05-27T06:06:36;99125.09;;;15.28;94.57
56992;BME280;42885;49.754;18.636;2023-05-27T06:09:12;99122.88;;;15.35;95.82
56992;BME280;42885;49.754;18.636;2023-05-27T06:11:43;99128.43;;;15.38;95.12
56992;BME280;42885;49.754;18.636;2023-05-27T06:14:14;99122.77;;;15.57;95.26
56992;BME280;42885;49.754;18.636;2023-05-27T06:16:46;99123.36;;;15.48;93.43
56992;BME280;42885;49.754;18.636;2023-05-27T06:19:17;99119.50;;;15.66;95.22
56992;BME280;42885;49.754;18.636;2023-05-27T06:21:48;99116.45;;;15.86;93.51
56992;BME280;42885;49.754;18.636;2023-05-27T06:24:37;99117.64;;;15.74;92.85
56992;BME280;42885;49.754;18.636;2023-05-27T06:27:12;99117.96;;;15.82;92.40
56992;BME280;42885;49.754;18.636;2023-05-27T06:29:43;99116.23;;;15.89;92.23
56992;BME280;42885;49.754;18.636;2023-05-27T06:32:15;99116.98;;;15.91;90.19
56992;BME280;42885;49.754;18.636;2023-05-27T06:34:46;99120.99;;;15.96;90.03
56992;BME280;42885;49.754;18.636;2023-05-27T06:37:17;99123.12;;;15.45;91.07
56992;BME280;42885;49.754;18.636;2023-05-27T06:39:48;99121.01;;;15.63;93.65
56992;BME280;42885;49.754;18.636;2023-05-27T06:42:19;99119.62;;;16.04;89.27
56992;BME280;42885;49.754;18.636;2023-05-27T06:44:56;99126.02;;;16.38;88.04
56992;BME280;42885;49.754;18.636;2023-05-27T06:47:29;99119.19;;;16.42;86.89
56992;BME280;42885;49.754;18.636;2023-05-27T06:50:00;99119.75;;;16.53;87.08
56992;BME280;42885;49.754;18.636;2023-05-27T06:52:31;99120.94;;;16.48;85.92
56992;BME280;42885;49.754;18.636;2023-05-27T06:55:17;99124.14;;;16.46;86.18
56992;BME280;42885;49.754;18.636;2023-05-27T06:58:08;99122.52;;;16.38;86.90
56992;BME280;42885;49.754;18.636;2023-05-27T07:00:43;99125.61;;;16.69;84.40
56992;BME280;42885;49.754;18.636;2023-05-27T07:03:16;99130.80;;;16.95;85.23
56992;BME280;42885;49.754;18.636;2023-05-27T07:05:47;99119.13;;;17.11;83.92
56992;BME280;42885;49.754;18.636;2023-05-27T07:08:18;99115.89;;;17.54;81.68
56992;BME280;42885;49.754;18.636;2023-05-27T07:10:51;99122.05;;;17.60;78.40
56992;BME280;42885;49.754;18.636;2023-05-27T07:13:22;99118.22;;;17.65;79.40
56992;BME280;42885;49.754;18.636;2023-05-27T07:15:55;99119.16;;;17.64;78.48
56992;BME280;42885;49.754;18.636;2023-05-27T07:18:25;99112.69;;;17.79;76.96
56992;BME280;42885;49.754;18.636;2023-05-27T07:20:58;99115.11;;;17.94;74.30
56992;BME280;42885;49.754;18.636;2023-05-27T07:23:29;99118.17;;;18.06;73.39
56992;BME280;42885;49.754;18.636;2023-05-27T07:26:18;99110.64;;;17.83;72.97
56992;BME280;42885;49.754;18.636;2023-05-27T07:28:49;99120.05;;;17.98;73.21
56992;BME280;42885;49.754;18.636;2023-05-27T07:31:22;99112.39;;;18.24;69.95
56992;BME280;42885;49.754;18.636;2023-05-27T07:33:54;99111.23;;;18.66;69.10
56992;BME280;42885;49.754;18.636;2023-05-27T07:36:26;99118.91;;;18.75;69.26
56992;BME280;42885;49.754;18.636;2023-05-27T07:38:57;99119.56;;;18.62;69.24
56992;BME280;42885;49.754;18.636;2023-05-27T07:41:28;99116.89;;;18.67;68.15
56992;BME280;42885;49.754;18.636;2023-05-27T07:44:00;99117.21;;;18.80;67.40
56992;BME280;42885;49.754;18.636;2023-05-27T07:46:31;99115.13;;;18.51;68.74
56992;BME280;42885;49.754;18.636;2023-05-27T07:49:03;99113.19;;;18.53;66.58
56992;BME280;42885;49.754;18.636;2023-05-27T07:51:37;99113.78;;;19.01;66.01
56992;BME280;42885;49.754;18.636;2023-05-27T07:54:08;99118.92;;;19.19;64.49
56992;BME280;42885;49.754;18.636;2023-05-27T07:56:40;99109.92;;;19.05;61.72
56992;BME280;42885;49.754;18.636;2023-05-27T07:59:11;99107.30;;;18.93;62.60
56992;BME280;42885;49.754;18.636;2023-05-27T08:01:42;99106.21;;;19.02;62.95
56992;BME280;42885;49.754;18.636;2023-05-27T08:04:13;99105.09;;;19.10;63.42
56992;BME280;42885;49.754;18.636;2023-05-27T08:06:46;99106.56;;;19.30;61.18
56992;BME280;42885;49.754;18.636;2023-05-27T08:09:30;99101.45;;;19.44;60.00
56992;BME280;42885;49.754;18.636;2023-05-27T08:12:04;99099.56;;;19.71;58.52
56992;BME280;42885;49.754;18.636;2023-05-27T08:14:53;99097.35;;;19.98;58.33
56992;BME280;42885;49.754;18.636;2023-05-27T08:17:43;99095.34;;;19.90;56.71
56992;BME280;42885;49.754;18.636;2023-05-27T08:20:33;99090.36;;;19.97;56.38
56992;BME280;42885;49.754;18.636;2023-05-27T08:23:06;99093.48;;;20.12;55.20
56992;BME280;42885;49.754;18.636;2023-05-27T08:25:57;99082.91;;;20.21;56.02
56992;BME280;42885;49.754;18.636;2023-05-27T08:28:35;99078.47;;;20.16;54.91
56992;BME280;42885;49.754;18.636;2023-05-27T08:31:08;99075.63;;;20.49;53.88
56992;BME280;42885;49.754;18.636;2023-05-27T08:33:44;99075.41;;;20.21;53.58
56992;BME280;42885;49.754;18.636;2023-05-27T08:36:16;99077.97;;;20.68;52.13
56992;BME280;42885;49.754;18.636;2023-05-27T08:38:50;99078.73;;;20.64;51.96
56992;BME280;42885;49.754;18.636;2023-05-27T08:41:27;99075.38;;;20.27;51.97
56992;BME280;42885;49.754;18.636;2023-05-27T08:43:59;99077.47;;;20.84;52.97
56992;BME280;42885;49.754;18.636;2023-05-27T08:46:30;99077.75;;;21.00;50.47
56992;BME280;42885;49.754;18.636;2023-05-27T08:49:02;99068.41;;;21.10;49.85
56992;BME280;42885;49.754;18.636;2023-05-27T08:51:37;99077.13;;;21.46;49.48
56992;BME280;42885;49.754;18.636;2023-05-27T08:54:09;99075.56;;;21.63;48.57
56992;BME280;42885;49.754;18.636;2023-05-27T08:56:43;99077.96;;;20.93;48.35
56992;BME280;42885;49.754;18.636;2023-05-27T08:59:16;99075.84;;;20.87;49.01
56992;BME280;42885;49.754;18.636;2023-05-27T09:01:48;99062.34;;;20.94;48.95
56992;BME280;42885;49.754;18.636;2023-05-27T09:04:19;99062.75;;;21.09;50.21
56992;BME280;42885;49.754;18.636;2023-05-27T09:06:50;99067.59;;;21.00;49.81
56992;BME280;42885;49.754;18.636;2023-05-27T09:09:22;99058.14;;;21.01;50.45
56992;BME280;42885;49.754;18.636;2023-05-27T09:11:53;99060.91;;;21.20;50.81
56992;BME280;42885;49.754;18.636;2023-05-27T09:14:27;99056.52;;;21.82;50.11
56992;BME280;42885;49.754;18.636;2023-05-27T09:17:07;99050.09;;;21.75;48.37
56992;BME280;42885;49.754;18.636;2023-05-27T09:19:38;99049.11;;;21.76;49.58
56992;BME280;42885;49.754;18.636;2023-05-27T09:22:23;99058.38;;;21.62;48.60
56992;BME280;42885;49.754;18.636;2023-05-27T09:24:44;99050.16;;;21.01;50.29
56992;BME280;42885;49.754;18.636;2023-05-27T09:27:15;99050.08;;;20.97;50.59
56992;BME280;42885;49.754;18.636;2023-05-27T09:29:46;99048.96;;;21.10;50.28
56992;BME280;42885;49.754;18.636;2023-05-27T09:32:26;99047.13;;;21.20;50.19
56992;BME280;42885;49.754;18.636;2023-05-27T09:34:59;99040.86;;;21.59;50.25
56992;BME280;42885;49.754;18.636;2023-05-27T09:37:31;99047.20;;;21.48;49.39
56992;BME280;42885;49.754;18.636;2023-05-27T09:40:12;99058.02;;;21.47;49.21
56992;BME280;42885;49.754;18.636;2023-05-27T09:42:45;99051.85;;;22.08;48.66
56992;BME280;42885;49.754;18.636;2023-05-27T09:45:21;99048.23;;;22.41;46.33
56992;BME280;42885;49.754;18.636;2023-05-27T09:47:52;99045.34;;;21.68;45.95
56992;BME280;42885;49.754;18.636;2023-05-27T09:50:26;99045.50;;;22.37;43.71
56992;BME280;42885;49.754;18.636;2023-05-27T09:52:59;99049.72;;;22.25;43.11
56992;BME280;42885;49.754;18.636;2023-05-27T09:55:31;99046.31;;;22.05;45.48
56992;BME280;42885;49.754;18.636;2023-05-27T09:58:03;99053.47;;;22.33;45.11
56992;BME280;42885;49.754;18.636;2023-05-27T10:00:34;99055.33;;;22.82;44.09
56992;BME280;42885;49.754;18.636;2023-05-27T10:03:12;99049.57;;;23.32;48.37
56992;BME280;42885;49.754;18.636;2023-05-27T10:05:40;99036.53;;;23.86;46.47
56992;BME280;42885;49.754;18.636;2023-05-27T10:08:11;99036.88;;;24.22;42.51
56992;BME280;42885;49.754;18.636;2023-05-27T10:10:44;99038.41;;;23.32;42.10
56992;BME280;42885;49.754;18.636;2023-05-27T10:13:16;99041.19;;;23.04;41.41
56992;BME280;42885;49.754;18.636;2023-05-27T10:15:51;99044.41;;;21.97;42.50
56992;BME280;42885;49.754;18.636;2023-05-27T10:18:27;99044.65;;;22.64;41.96
56992;BME280;42885;49.754;18.636;2023-05-27T10:21:00;99041.78;;;23.16;39.95
56992;BME280;42885;49.754;18.636;2023-05-27T10:23:31;99039.19;;;22.70;41.35
56992;BME280;42885;49.754;18.636;2023-05-27T10:26:07;99037.15;;;22.18;41.51
56992;BME280;42885;49.754;18.636;2023-05-27T10:28:39;99035.73;;;22.92;41.23
56992;BME280;42885;49.754;18.636;2023-05-27T10:31:14;99037.27;;;23.39;40.03
56992;BME280;42885;49.754;18.636;2023-05-27T10:33:46;99039.84;;;23.04;40.78
56992;BME280;42885;49.754;18.636;2023-05-27T10:36:22;99037.67;;;22.86;42.07
56992;BME280;42885;49.754;18.636;2023-05-27T10:38:58;99037.98;;;23.45;43.51
56992;BME280;42885;49.754;18.636;2023-05-27T10:41:49;99028.20;;;23.32;41.30
56992;BME280;42885;49.754;18.636;2023-05-27T10:44:36;99023.17;;;24.21;41.13
56992;BME280;42885;49.754;18.636;2023-05-27T10:47:11;99017.80;;;24.12;39.33
56992;BME280;42885;49.754;18.636;2023-05-27T10:49:47;99020.13;;;24.15;41.30
56992;BME280;42885;49.754;18.636;2023-05-27T10:52:18;99028.16;;;23.50;40.88
56992;BME280;42885;49.754;18.636;2023-05-27T10:54:49;99029.57;;;22.73;42.15
56992;BME280;42885;49.754;18.636;2023-05-27T10:57:21;99019.63;;;23.24;40.63
56992;BME280;42885;49.754;18.636;2023-05-27T10:59:53;99012.08;;;25.08;41.73
56992;BME280;42885;49.754;18.636;2023-05-27T11:02:30;99011.20;;;24.54;39.28
56992;BME280;42885;49.754;18.636;2023-05-27T11:05:08;99012.65;;;24.27;40.14
56992;BME280;42885;49.754;18.636;2023-05-27T11:07:38;99009.55;;;25.15;40.80
56992;BME280;42885;49.754;18.636;2023-05-27T11:10:13;99012.06;;;25.12;37.97
56992;BME280;42885;49.754;18.636;2023-05-27T11:12:44;99019.81;;;23.53;39.86
56992;BME280;42885;49.754;18.636;2023-05-27T11:15:15;99012.05;;;24.67;39.56
56992;BME280;42885;49.754;18.636;2023-05-27T11:17:46;99002.55;;;24.89;37.50
56992;BME280;42885;49.754;18.636;2023-05-27T11:20:17;99003.18;;;25.28;36.69
56992;BME280;42885;49.754;18.636;2023-05-27T11:22:51;98996.81;;;25.29;36.10
56992;BME280;42885;49.754;18.636;2023-05-27T11:25:22;99000.97;;;25.97;38.44
56992;BME280;42885;49.754;18.636;2023-05-27T11:27:53;99000.01;;;26.53;36.35
56992;BME280;42885;49.754;18.636;2023-05-27T11:30:24;98999.96;;;26.57;35.18
56992;BME280;42885;49.754;18.636;2023-05-27T11:33:01;98992.12;;;26.51;35.25
56992;BME280;42885;49.754;18.636;2023-05-27T11:35:31;98993.95;;;26.28;34.30
56992;BME280;42885;49.754;18.636;2023-05-27T11:38:04;98986.87;;;27.01;34.20
56992;BME280;42885;49.754;18.636;2023-05-27T11:40:35;98992.16;;;26.71;33.50
56992;BME280;42885;49.754;18.636;2023-05-27T11:43:08;98988.38;;;26.80;34.24
56992;BME280;42885;49.754;18.636;2023-05-27T11:45:39;98978.77;;;27.39;34.45
56992;BME280;42885;49.754;18.636;2023-05-27T11:48:11;98978.77;;;27.39;34.45
56992;BME280;42885;49.754;18.636;2023-05-27T11:50:43;98983.01;;;27.18;33.13
56992;BME280;42885;49.754;18.636;2023-05-27T11:53:15;98977.91;;;26.85;33.80
56992;BME280;42885;49.754;18.636;2023-05-27T11:55:47;98975.88;;;28.01;33.03
56992;BME280;42885;49.754;18.636;2023-05-27T11:58:18;98958.91;;;27.44;33.71
56992;BME280;42885;49.754;18.636;2023-05-27T12:00:49;98964.87;;;27.81;33.30
56992;BME280;42885;49.754;18.636;2023-05-27T12:03:20;98965.72;;;27.66;32.69
56992;BME280;42885;49.754;18.636;2023-05-27T12:05:51;98963.70;;;27.04;32.84
56992;BME280;42885;49.754;18.636;2023-05-27T12:08:23;98955.59;;;27.53;33.81
56992;BME280;42885;49.754;18.636;2023-05-27T12:10:54;98961.27;;;28.36;33.53
56992;BME280;42885;49.754;18.636;2023-05-27T12:13:25;98960.59;;;27.86;32.28
56992;BME280;42885;49.754;18.636;2023-05-27T12:15:57;98956.97;;;28.53;32.88
56992;BME280;42885;49.754;18.636;2023-05-27T12:18:27;98961.55;;;30.42;34.19
56992;BME280;42885;49.754;18.636;2023-05-27T12:20:59;98953.09;;;28.19;33.04
56992;BME280;42885;49.754;18.636;2023-05-27T12:23:30;98959.87;;;28.03;32.55
56992;BME280;42885;49.754;18.636;2023-05-27T12:26:01;98958.63;;;28.65;32.09
56992;BME280;42885;49.754;18.636;2023-05-27T12:28:33;98960.69;;;28.63;32.24
56992;BME280;42885;49.754;18.636;2023-05-27T12:31:04;98952.98;;;28.92;32.94
56992;BME280;42885;49.754;18.636;2023-05-27T12:33:35;98956.32;;;28.29;31.96
56992;BME280;42885;49.754;18.636;2023-05-27T12:36:06;98960.41;;;27.13;31.16
56992;BME280;42885;49.754;18.636;2023-05-27T12:38:37;98953.78;;;28.06;30.74
56992;BME280;42885;49.754;18.636;2023-05-27T12:41:09;98954.09;;;28.54;30.99
56992;BME280;42885;49.754;18.636;2023-05-27T12:43:39;98955.88;;;28.58;30.70
56992;BME280;42885;49.754;18.636;2023-05-27T12:46:11;98951.53;;;28.57;30.93
56992;BME280;42885;49.754;18.636;2023-05-27T12:48:42;98940.66;;;28.17;30.80
56992;BME280;42885;49.754;18.636;2023-05-27T12:51:13;98949.33;;;28.67;30.29
56992;BME280;42885;49.754;18.636;2023-05-27T12:54:03;98936.33;;;29.46;30.87
56992;BME280;42885;49.754;18.636;2023-05-27T12:56:54;98946.91;;;28.51;31.04
56992;BME280;42885;49.754;18.636;2023-05-27T12:59:27;98943.00;;;27.95;30.33
56992;BME280;42885;49.754;18.636;2023-05-27T13:01:58;98931.11;;;28.69;30.15
56992;BME280;42885;49.754;18.636;2023-05-27T13:04:29;98926.11;;;28.77;29.88
56992;BME280;42885;49.754;18.636;2023-05-27T13:07:00;98935.69;;;28.58;30.26
56992;BME280;42885;49.754;18.636;2023-05-27T13:09:31;98928.96;;;28.25;29.54
56992;BME280;42885;49.754;18.636;2023-05-27T13:12:02;98926.11;;;28.77;28.78
56992;BME280;42885;49.754;18.636;2023-05-27T13:14:33;98926.23;;;27.67;29.72
56992;BME280;42885;49.754;18.636;2023-05-27T13:17:04;98920.91;;;29.50;28.86
56992;BME280;42885;49.754;18.636;2023-05-27T13:19:36;98917.92;;;29.21;27.88